Flight Information

DEPARTURE
NORTH BEND, OR
Elevation:
17
Runways:
5/23 - 5980x150 - ASPH-G
13/31 - 4470x150 - ASPH-G
Ground:
127.1
Tower:
NORTH BEND TOWER 118.45
DESTINATION
,
Elevation:
TPA:
1000 (est.)


6847.4 NM65° True-18° Var46° HDG

Flight Plan:
(click to file on line)

1. Type
2. Aircraft Identification
3. Aircraft Type / Special Equipment
4. True Airspeed
kts
5. Departure Airport
(ICAO code)
6. Arriving Airport
(ICAO code)
7. Cruising Altitude
ft
8. Alternate Airport
(ICAO code)
9. Route of Flight
10. Remarks


00:00:00 Departure ATIS: Destination ATIS:

Clearance Limit:
Route:
Altitude: Expect in minutes
Frequency:
Transponder: (7500 Hijack / 7600 Lost Comms / 7700 Emergency)


KOTH 101556Z 36003KT 10SM OVC020 16/14 A3019 RMK AO2 SLP223 T01610144
Time: 2020-07-10T15:56:00Z
1594399138
Winds: 360 @ 3 kts
Visibility: 10.0 sm
Clouds (AGL): OVC 2000
Temperature: 16.1 C
Dew Point: 14.4 C
Pressure: 30.188976 in Hgbr


Notes:

Data extracted from FAA Digital Chart Supplement. Effective: 0901Z Thursday, May 21, 2020 to 0901Z Thursday, Jul 16, 2020
Current ATIS data is provided courtisy of PilotEdge.